Time;durP1;ratioP1;P1;durP2;ratioP2;P2;SDS_P1;SDS_P2;PMS_P1;PMS_P2;Temp;Humidity;BMP_temperature;BMP_pressure;BME280_temperature;BME280_humidity;BME280_pressure;Samples;Min_cycle;Max_cycle;Signal;HPM_P1;HPM_P2
2022/04/24 00:02:00;;;;;;;15.30;13.13;;;;;;;;;;5102779;28;20215;-70
2022/04/24 00:04:27;;;;;;;22.08;14.35;;;;;;;;;;5102956;28;20233;-69
2022/04/24 00:06:53;;;;;;;18.27;14.50;;;;;;;;;;5102491;28;20237;-69
2022/04/24 00:09:19;;;;;;;16.48;13.90;;;;;;;;;;5102641;28;20199;-70
2022/04/24 00:11:46;;;;;;;15.60;12.73;;;;;;;;;;5102710;28;20237;-69
2022/04/24 00:14:14;;;;;;;14.68;13.07;;;;;;;;;;5102584;28;20203;-69
2022/04/24 00:16:41;;;;;;;17.48;13.60;;;;;;;;;;5102408;28;20207;-69
2022/04/24 00:19:07;;;;;;;14.30;12.68;;;;;;;;;;5102588;28;20266;-69
2022/04/24 00:21:34;;;;;;;14.77;13.18;;;;;;;;;;5102587;28;20260;-70
2022/04/24 00:24:00;;;;;;;13.95;12.45;;;;;;;;;;5102581;28;20212;-70
2022/04/24 00:26:27;;;;;;;14.65;12.27;;;;;;;;;;5102201;28;20283;-69
2022/04/24 00:28:53;;;;;;;14.20;12.73;;;;;;;;;;5102609;28;20196;-70
2022/04/24 00:31:21;;;;;;;18.42;12.63;;;;;;;;;;5102622;28;20253;-69
2022/04/24 00:33:47;;;;;;;14.88;12.13;;;;;;;;;;5102608;28;20513;-70
2022/04/24 00:36:14;;;;;;;12.63;11.30;;;;;;;;;;5102308;28;20425;-69
2022/04/24 00:38:40;;;;;;;14.65;12.82;;;;;;;;;;5102363;28;20196;-69
2022/04/24 00:41:06;;;;;;;16.23;13.18;;;;;;;;;;5103081;28;20196;-69
2022/04/24 00:43:32;;;;;;;13.98;12.48;;;;;;;;;;5106643;28;20219;-69
2022/04/24 00:46:10;;;;;;;16.27;13.23;;;;;;;;;;5106552;28;20448;-70
2022/04/24 00:48:38;;;;;;;16.17;12.70;;;;;;;;;;5106573;28;20502;-69
2022/04/24 00:51:04;;;;;;;15.48;13.82;;;;;;;;;;5106449;28;20196;-69
2022/04/24 00:53:30;;;;;;;15.30;12.73;;;;;;;;;;5106322;28;20196;-70
2022/04/24 00:55:57;;;;;;;15.45;12.77;;;;;;;;;;5106427;28;20241;-70
2022/04/24 00:58:23;;;;;;;15.13;13.43;;;;;;;;;;5106439;28;20196;-70
2022/04/24 01:00:50;;;;;;;15.07;13.32;;;;;;;;;;5106357;28;20211;-70
2022/04/24 01:03:16;;;;;;;17.48;14.45;;;;;;;;;;5106247;28;20219;-70
2022/04/24 01:05:44;;;;;;;15.10;13.48;;;;;;;;;;5106043;28;20215;-70
2022/04/24 01:08:10;;;;;;;15.88;14.02;;;;;;;;;;5106299;28;20196;-69
2022/04/24 01:10:37;;;;;;;17.08;13.80;;;;;;;;;;5106148;28;20248;-70
2022/04/24 01:13:03;;;;;;;17.08;13.93;;;;;;;;;;5106347;28;20195;-69
2022/04/24 01:15:30;;;;;;;17.80;14.07;;;;;;;;;;5106256;28;20673;-69
2022/04/24 01:17:57;;;;;;;18.10;15.38;;;;;;;;;;5105739;28;20195;-69
2022/04/24 01:20:25;;;;;;;18.17;14.95;;;;;;;;;;5105903;28;20241;-69
2022/04/24 01:22:51;;;;;;;18.05;15.10;;;;;;;;;;5105606;28;20257;-69
2022/04/24 01:25:17;;;;;;;16.45;14.20;;;;;;;;;;5105077;28;20196;-70
2022/04/24 01:27:44;;;;;;;17.00;15.02;;;;;;;;;;5105500;28;20377;-69
2022/04/24 01:30:10;;;;;;;16.50;14.65;;;;;;;;;;5105550;28;20233;-69
2022/04/24 01:32:38;;;;;;;15.93;14.18;;;;;;;;;;5105564;28;20196;-70
2022/04/24 01:35:05;;;;;;;18.70;14.52;;;;;;;;;;5105935;28;20203;-69
2022/04/24 01:37:32;;;;;;;18.15;14.52;;;;;;;;;;5105415;28;20514;-69
2022/04/24 01:39:59;;;;;;;18.27;14.50;;;;;;;;;;5105466;28;20199;-70
2022/04/24 01:42:25;;;;;;;17.83;13.82;;;;;;;;;;5105382;28;20441;-70
2022/04/24 01:44:51;;;;;;;15.07;13.48;;;;;;;;;;5105272;28;20260;-70
2022/04/24 01:47:18;;;;;;;14.98;13.48;;;;;;;;;;5105370;28;20481;-70
2022/04/24 01:49:44;;;;;;;16.52;13.80;;;;;;;;;;5105424;28;20440;-69
2022/04/24 01:52:10;;;;;;;15.88;14.07;;;;;;;;;;5104496;28;20511;-69
2022/04/24 01:54:38;;;;;;;16.05;14.23;;;;;;;;;;5104601;28;20262;-69
2022/04/24 01:57:05;;;;;;;17.48;14.13;;;;;;;;;;5104886;28;20203;-69
2022/04/24 01:59:31;;;;;;;14.95;13.25;;;;;;;;;;5105101;28;20499;-69
2022/04/24 02:01:57;;;;;;;15.32;13.73;;;;;;;;;;5104960;28;20441;-70
2022/04/24 02:04:23;;;;;;;15.75;13.88;;;;;;;;;;5105118;28;20565;-69
2022/04/24 02:06:50;;;;;;;14.85;13.35;;;;;;;;;;5104720;28;20223;-69
2022/04/24 02:09:16;;;;;;;16.75;14.00;;;;;;;;;;5104919;28;20199;-69
2022/04/24 02:11:43;;;;;;;17.83;14.38;;;;;;;;;;5104725;28;20200;-70
2022/04/24 02:14:10;;;;;;;14.85;13.35;;;;;;;;;;5104983;28;20241;-69
2022/04/24 02:16:36;;;;;;;16.40;14.25;;;;;;;;;;5104763;28;20368;-69
2022/04/24 02:19:03;;;;;;;17.02;13.65;;;;;;;;;;5105010;28;20195;-70
2022/04/24 02:21:29;;;;;;;14.52;13.02;;;;;;;;;;5104842;28;20428;-70
2022/04/24 02:23:56;;;;;;;14.75;13.23;;;;;;;;;;5104502;28;20268;-69
2022/04/24 02:26:22;;;;;;;17.70;14.75;;;;;;;;;;5104218;28;20427;-67
2022/04/24 02:28:50;;;;;;;15.32;12.70;;;;;;;;;;5104687;28;20425;-70
2022/04/24 02:31:16;;;;;;;15.57;13.52;;;;;;;;;;5104941;28;20200;-70
2022/04/24 02:33:42;;;;;;;15.88;14.25;;;;;;;;;;5104518;28;20409;-69
2022/04/24 02:36:08;;;;;;;17.20;15.15;;;;;;;;;;5104333;28;20562;-70
2022/04/24 02:38:34;;;;;;;19.33;15.88;;;;;;;;;;5104465;28;20503;-70
2022/04/24 02:41:01;;;;;;;22.15;16.52;;;;;;;;;;5104285;28;20436;-70
2022/04/24 02:43:27;;;;;;;19.08;15.65;;;;;;;;;;5104328;28;20220;-69
2022/04/24 02:45:55;;;;;;;16.73;14.85;;;;;;;;;;5104267;28;20292;-70
2022/04/24 02:48:22;;;;;;;18.05;16.15;;;;;;;;;;5104057;28;20218;-70
2022/04/24 02:50:48;;;;;;;19.73;15.70;;;;;;;;;;5104189;28;20196;-69
2022/04/24 02:53:15;;;;;;;16.63;14.77;;;;;;;;;;5104221;28;20191;-70
2022/04/24 02:55:41;;;;;;;18.10;16.08;;;;;;;;;;5103922;28;20195;-69
2022/04/24 02:58:07;;;;;;;18.02;15.35;;;;;;;;;;5103842;28;20195;-70
2022/04/24 03:00:42;;;;;;;18.42;16.00;;;;;;;;;;5104037;28;20196;-70
2022/04/24 03:03:10;;;;;;;18.77;16.10;;;;;;;;;;5103811;28;20211;-70
2022/04/24 03:05:37;;;;;;;18.77;15.52;;;;;;;;;;5103403;28;20230;-70
2022/04/24 03:08:03;;;;;;;20.15;16.15;;;;;;;;;;5103543;28;20379;-69
2022/04/24 03:10:30;;;;;;;18.05;15.43;;;;;;;;;;5103755;28;20241;-70
2022/04/24 03:12:56;;;;;;;19.38;15.10;;;;;;;;;;5103835;28;20206;-70
2022/04/24 03:15:22;;;;;;;18.88;15.82;;;;;;;;;;5103782;28;20195;-70
2022/04/24 03:17:50;;;;;;;19.05;16.23;;;;;;;;;;5103451;28;20423;-70
2022/04/24 03:20:18;;;;;;;20.30;16.38;;;;;;;;;;5103464;28;20266;-70
2022/04/24 03:22:44;;;;;;;19.83;16.83;;;;;;;;;;5103273;28;20215;-69
2022/04/24 03:25:11;;;;;;;20.75;17.02;;;;;;;;;;5103805;28;20199;-70
2022/04/24 03:27:37;;;;;;;19.35;17.20;;;;;;;;;;5103298;28;20195;-70
2022/04/24 03:30:04;;;;;;;20.33;17.10;;;;;;;;;;5103763;28;20499;-70
2022/04/24 03:32:30;;;;;;;21.60;16.60;;;;;;;;;;5103389;28;20191;-69
2022/04/24 03:34:57;;;;;;;21.20;18.02;;;;;;;;;;5103169;28;20233;-70
2022/04/24 03:37:25;;;;;;;20.83;17.35;;;;;;;;;;5103127;28;20196;-69
2022/04/24 03:39:51;;;;;;;19.88;17.73;;;;;;;;;;5103405;28;20271;-70
2022/04/24 03:42:17;;;;;;;23.25;17.67;;;;;;;;;;5103090;28;20241;-70
2022/04/24 03:44:43;;;;;;;24.38;17.88;;;;;;;;;;5103225;28;20196;-70
2022/04/24 03:47:10;;;;;;;22.58;17.10;;;;;;;;;;5102820;28;20248;-70
2022/04/24 03:49:36;;;;;;;24.02;17.95;;;;;;;;;;5103088;28;20199;-70
2022/04/24 03:52:02;;;;;;;22.52;17.08;;;;;;;;;;5103193;28;20203;-70
2022/04/24 03:54:30;;;;;;;20.80;16.80;;;;;;;;;;5103061;28;20237;-70
2022/04/24 03:56:56;;;;;;;20.15;16.48;;;;;;;;;;5102707;28;20425;-70
2022/04/24 03:59:22;;;;;;;20.77;18.15;;;;;;;;;;5102984;28;20233;-70
2022/04/24 04:01:49;;;;;;;26.00;19.15;;;;;;;;;;5102736;28;20203;-70
2022/04/24 04:04:15;;;;;;;23.52;19.27;;;;;;;;;;5102605;28;20212;-69
2022/04/24 04:06:41;;;;;;;24.70;19.10;;;;;;;;;;5102686;28;20488;-70
2022/04/24 04:09:08;;;;;;;28.05;20.15;;;;;;;;;;5102846;28;20265;-70
2022/04/24 04:11:35;;;;;;;26.75;20.17;;;;;;;;;;5102845;28;20195;-70
2022/04/24 04:14:01;;;;;;;25.63;19.83;;;;;;;;;;5102673;28;20191;-70
2022/04/24 04:16:28;;;;;;;26.52;20.13;;;;;;;;;;5101726;28;20200;-70
2022/04/24 04:18:54;;;;;;;24.83;18.75;;;;;;;;;;5102667;28;20241;-70
2022/04/24 04:21:20;;;;;;;23.70;17.98;;;;;;;;;;5102847;28;20249;-70
2022/04/24 04:23:46;;;;;;;28.42;20.90;;;;;;;;;;5102573;28;20233;-70
2022/04/24 04:26:17;;;;;;;23.88;19.33;;;;;;;;;;5102330;28;20195;-70
2022/04/24 04:28:45;;;;;;;24.90;19.27;;;;;;;;;;5102508;28;20223;-70
2022/04/24 04:31:12;;;;;;;27.55;21.50;;;;;;;;;;5102387;28;20202;-67
2022/04/24 04:33:38;;;;;;;27.38;21.02;;;;;;;;;;5102693;28;20248;-70
2022/04/24 04:36:04;;;;;;;28.63;22.40;;;;;;;;;;5102463;28;20423;-70
2022/04/24 04:38:30;;;;;;;33.42;22.67;;;;;;;;;;5102385;28;20195;-70
2022/04/24 04:40:57;;;;;;;31.40;23.92;;;;;;;;;;5102261;28;20242;-70
2022/04/24 04:43:26;;;;;;;35.15;24.15;;;;;;;;;;5102420;28;20208;-70
2022/04/24 04:45:53;;;;;;;25.80;18.42;;;;;;;;;;5102492;28;20195;-70
2022/04/24 04:48:20;;;;;;;16.35;13.50;;;;;;;;;;5102319;28;20204;-69
2022/04/24 04:50:46;;;;;;;17.00;12.20;;;;;;;;;;5102431;28;20499;-69
2022/04/24 04:53:12;;;;;;;13.88;11.00;;;;;;;;;;5102417;28;20192;-69
2022/04/24 04:55:39;;;;;;;14.73;10.63;;;;;;;;;;5102352;28;20249;-69
2022/04/24 04:58:05;;;;;;;6.15;5.53;;;;;;;;;;5102021;28;20435;-69
2022/04/24 05:00:31;;;;;;;7.00;6.30;;;;;;;;;;5101908;28;20195;-69
2022/04/24 05:02:59;;;;;;;5.13;4.65;;;;;;;;;;5102219;28;20265;-69
2022/04/24 05:05:25;;;;;;;4.80;4.10;;;;;;;;;;5102128;28;20538;-69
2022/04/24 05:07:52;;;;;;;3.60;3.40;;;;;;;;;;5101962;28;20196;-69
2022/04/24 05:10:19;;;;;;;1.70;1.70;;;;;;;;;;5102167;28;20210;-69
2022/04/24 05:12:45;;;;;;;2.00;1.90;;;;;;;;;;5102146;28;20254;-69
2022/04/24 05:15:13;;;;;;;1.58;1.48;;;;;;;;;;5101871;28;20241;-69
2022/04/24 05:17:39;;;;;;;3.40;1.35;;;;;;;;;;5100794;28;20553;-69
2022/04/24 05:20:09;;;;;;;1.70;1.30;;;;;;;;;;5102190;28;20192;-69
2022/04/24 05:22:35;;;;;;;1.00;1.00;;;;;;;;;;5101927;28;20203;-69
2022/04/24 05:25:01;;;;;;;1.02;1.02;;;;;;;;;;5102386;28;20607;-69
2022/04/24 05:27:27;;;;;;;0.80;0.80;;;;;;;;;;5103022;28;20426;-69
2022/04/24 05:29:54;;;;;;;0.50;0.50;;;;;;;;;;5106019;28;20397;-69
2022/04/24 05:32:20;;;;;;;0.60;0.60;;;;;;;;;;5105705;28;20233;-69
2022/04/24 05:34:46;;;;;;;1.55;0.60;;;;;;;;;;5105688;28;20229;-69
2022/04/24 05:37:14;;;;;;;0.68;0.60;;;;;;;;;;5105454;28;20195;-69
2022/04/24 05:39:40;;;;;;;2.72;0.88;;;;;;;;;;5105637;28;20240;-69
2022/04/24 05:42:06;;;;;;;0.88;0.65;;;;;;;;;;5105353;28;20241;-69
2022/04/24 05:44:33;;;;;;;1.63;0.55;;;;;;;;;;5105320;28;20220;-69
2022/04/24 05:46:59;;;;;;;0.70;0.70;;;;;;;;;;5105360;28;20199;-69
2022/04/24 05:49:26;;;;;;;1.58;0.50;;;;;;;;;;5104926;28;20234;-69
2022/04/24 05:51:52;;;;;;;0.80;0.40;;;;;;;;;;5104865;28;20248;-69
2022/04/24 05:54:19;;;;;;;0.85;0.50;;;;;;;;;;5104699;28;20545;-69
2022/04/24 05:56:46;;;;;;;0.52;0.40;;;;;;;;;;5104862;28;20487;-69
2022/04/24 05:59:12;;;;;;;2.75;0.50;;;;;;;;;;5104449;28;20196;-69
2022/04/24 06:01:38;;;;;;;1.95;0.50;;;;;;;;;;5104450;28;20249;-69
2022/04/24 06:04:04;;;;;;;1.52;0.57;;;;;;;;;;5104469;28;20321;-69
2022/04/24 06:06:32;;;;;;;1.48;0.50;;;;;;;;;;5104107;28;20216;-69
2022/04/24 06:08:58;;;;;;;1.27;0.60;;;;;;;;;;5104247;28;20506;-69
2022/04/24 06:11:26;;;;;;;0.65;0.65;;;;;;;;;;5104300;28;20203;-69
2022/04/24 06:13:52;;;;;;;2.53;0.60;;;;;;;;;;5104530;28;20205;-69
2022/04/24 06:16:19;;;;;;;0.75;0.50;;;;;;;;;;5104167;28;20241;-69
2022/04/24 06:18:45;;;;;;;1.50;0.70;;;;;;;;;;5104198;28;20188;-69
2022/04/24 06:21:11;;;;;;;0.50;0.50;;;;;;;;;;5104398;28;20240;-69
2022/04/24 06:23:37;;;;;;;0.35;0.22;;;;;;;;;;5103989;28;20261;-69
2022/04/24 06:26:04;;;;;;;0.30;0.30;;;;;;;;;;5103764;28;20204;-69
2022/04/24 06:28:31;;;;;;;0.63;0.40;;;;;;;;;;5104015;28;20222;-69
2022/04/24 06:30:57;;;;;;;1.08;0.30;;;;;;;;;;5104187;28;20491;-69
2022/04/24 06:33:24;;;;;;;0.88;0.30;;;;;;;;;;5104061;28;20192;-69
2022/04/24 06:35:50;;;;;;;0.20;0.20;;;;;;;;;;5103770;28;20246;-69
2022/04/24 06:38:17;;;;;;;0.85;0.77;;;;;;;;;;5103129;28;20200;-69
2022/04/24 06:40:43;;;;;;;0.40;0.20;;;;;;;;;;5103800;28;20226;-69
2022/04/24 06:43:09;;;;;;;0.22;0.20;;;;;;;;;;5104407;28;20253;-69
2022/04/24 06:45:37;;;;;;;0.28;0.22;;;;;;;;;;5104593;28;20235;-69
2022/04/24 06:48:05;;;;;;;0.30;0.30;;;;;;;;;;5103951;28;20208;-69
2022/04/24 06:50:32;;;;;;;0.20;0.20;;;;;;;;;;5104303;28;20196;-69
2022/04/24 06:52:59;;;;;;;1.35;0.20;;;;;;;;;;5103860;28;20206;-69
2022/04/24 06:55:25;;;;;;;0.45;0.45;;;;;;;;;;5104092;28;20199;-69
2022/04/24 06:57:51;;;;;;;1.70;1.60;;;;;;;;;;5104015;28;20218;-70
2022/04/24 07:00:18;;;;;;;1.15;1.15;;;;;;;;;;5103832;28;20211;-70
2022/04/24 07:02:45;;;;;;;0.30;0.30;;;;;;;;;;5103956;28;20249;-70
2022/04/24 07:05:12;;;;;;;0.57;0.30;;;;;;;;;;5103855;28;20227;-69
2022/04/24 07:07:38;;;;;;;0.30;0.30;;;;;;;;;;5103582;28;20250;-69
2022/04/24 07:10:04;;;;;;;0.50;0.50;;;;;;;;;;5104016;28;20272;-69
2022/04/24 07:12:31;;;;;;;0.40;0.40;;;;;;;;;;5103833;28;20252;-69
2022/04/24 07:14:57;;;;;;;2.47;2.28;;;;;;;;;;5103897;28;20192;-69
2022/04/24 07:17:23;;;;;;;0.40;0.40;;;;;;;;;;5103474;28;20379;-69
2022/04/24 07:19:51;;;;;;;0.60;0.57;;;;;;;;;;5103595;28;20195;-69
2022/04/24 07:22:17;;;;;;;0.50;0.50;;;;;;;;;;5103468;28;20203;-69
2022/04/24 07:24:43;;;;;;;1.27;1.20;;;;;;;;;;5103558;28;20223;-69
2022/04/24 07:27:10;;;;;;;3.10;2.90;;;;;;;;;;5103414;28;20200;-69
2022/04/24 07:29:36;;;;;;;0.95;0.50;;;;;;;;;;5103478;28;20195;-69
2022/04/24 07:32:02;;;;;;;1.38;0.47;;;;;;;;;;5103449;28;20234;-69
2022/04/24 07:34:28;;;;;;;0.57;0.57;;;;;;;;;;5103326;28;20229;-69
2022/04/24 07:36:56;;;;;;;0.40;0.40;;;;;;;;;;5103580;28;20195;-69
2022/04/24 07:39:22;;;;;;;0.32;0.32;;;;;;;;;;5103486;28;20440;-69
2022/04/24 07:41:48;;;;;;;0.30;0.30;;;;;;;;;;5103176;28;20241;-69
2022/04/24 07:44:15;;;;;;;0.60;0.60;;;;;;;;;;5103063;28;20216;-69
2022/04/24 07:46:41;;;;;;;0.40;0.40;;;;;;;;;;5103153;28;20643;-69
2022/04/24 07:49:07;;;;;;;0.45;0.40;;;;;;;;;;5103140;28;20233;-69
2022/04/24 07:51:34;;;;;;;0.47;0.47;;;;;;;;;;5102784;28;20192;-69
2022/04/24 07:54:01;;;;;;;0.47;0.47;;;;;;;;;;5103168;28;20267;-69
2022/04/24 07:56:27;;;;;;;1.42;0.60;;;;;;;;;;5103017;28;20233;-69
2022/04/24 07:58:54;;;;;;;0.50;0.50;;;;;;;;;;5102989;28;20195;-69
2022/04/24 08:01:20;;;;;;;0.50;0.50;;;;;;;;;;5102873;28;20204;-69
2022/04/24 08:03:46;;;;;;;0.80;0.80;;;;;;;;;;5102660;28;20708;-69
2022/04/24 08:06:12;;;;;;;0.40;0.40;;;;;;;;;;5102380;28;20231;-69
2022/04/24 08:08:39;;;;;;;0.35;0.35;;;;;;;;;;5102832;28;20196;-69
2022/04/24 08:11:06;;;;;;;0.75;0.40;;;;;;;;;;5102849;28;20242;-69
2022/04/24 08:13:33;;;;;;;0.30;0.30;;;;;;;;;;5102676;28;20203;-69
2022/04/24 08:16:01;;;;;;;1.30;0.38;;;;;;;;;;5102509;28;20270;-70
2022/04/24 08:18:27;;;;;;;0.95;0.40;;;;;;;;;;5102534;28;20561;-62
2022/04/24 08:20:53;;;;;;;0.73;0.70;;;;;;;;;;5102412;28;20253;-62
2022/04/24 08:23:20;;;;;;;0.40;0.40;;;;;;;;;;5102605;28;20243;-62
2022/04/24 08:25:47;;;;;;;0.73;0.50;;;;;;;;;;5102446;28;20287;-62
2022/04/24 08:28:15;;;;;;;0.40;0.40;;;;;;;;;;5102377;28;20220;-62
2022/04/24 08:30:42;;;;;;;0.52;0.52;;;;;;;;;;5102512;28;20203;-62
2022/04/24 08:33:08;;;;;;;0.95;0.57;;;;;;;;;;5102199;28;20241;-62
2022/04/24 08:35:35;;;;;;;0.50;0.50;;;;;;;;;;5102755;28;20192;-62
2022/04/24 08:38:01;;;;;;;0.40;0.40;;;;;;;;;;5102331;28;20199;-62
2022/04/24 08:40:27;;;;;;;2.00;1.77;;;;;;;;;;5102549;28;20196;-62
2022/04/24 08:42:54;;;;;;;0.40;0.40;;;;;;;;;;5102395;28;20432;-62
2022/04/24 08:45:25;;;;;;;0.40;0.40;;;;;;;;;;5102227;28;20249;-61
2022/04/24 08:47:51;;;;;;;1.58;0.30;;;;;;;;;;5101884;28;20499;-61
2022/04/24 08:50:18;;;;;;;0.98;0.35;;;;;;;;;;5102441;28;20245;-62
2022/04/24 08:52:44;;;;;;;0.40;0.40;;;;;;;;;;5102245;28;20499;-62
2022/04/24 08:55:11;;;;;;;0.90;0.50;;;;;;;;;;5102139;28;20192;-62
2022/04/24 08:57:37;;;;;;;0.43;0.30;;;;;;;;;;5102085;28;20199;-62
2022/04/24 09:00:05;;;;;;;0.50;0.50;;;;;;;;;;5102127;28;20386;-61
2022/04/24 09:02:32;;;;;;;0.80;0.60;;;;;;;;;;5103587;28;20219;-61
2022/04/24 09:04:58;;;;;;;0.50;0.50;;;;;;;;;;5106324;28;20288;-62
2022/04/24 09:07:30;;;;;;;0.60;0.60;;;;;;;;;;5106099;28;20200;-62
2022/04/24 09:09:57;;;;;;;0.77;0.60;;;;;;;;;;5106154;28;20195;-62
2022/04/24 09:12:24;;;;;;;2.50;0.60;;;;;;;;;;5105935;28;20227;-62
2022/04/24 09:14:50;;;;;;;0.60;0.60;;;;;;;;;;5105817;28;20235;-62
2022/04/24 09:17:17;;;;;;;0.63;0.63;;;;;;;;;;5105993;28;20196;-62
2022/04/24 09:19:45;;;;;;;0.70;0.70;;;;;;;;;;5105982;28;20500;-62
2022/04/24 09:22:11;;;;;;;0.75;0.75;;;;;;;;;;5105983;28;20233;-62
2022/04/24 09:24:42;;;;;;;0.70;0.70;;;;;;;;;;5105807;28;20585;-62
2022/04/24 09:27:08;;;;;;;2.58;1.67;;;;;;;;;;5105373;28;20200;-62
2022/04/24 09:29:35;;;;;;;1.60;1.30;;;;;;;;;;5105767;28;20488;-62
2022/04/24 09:32:01;;;;;;;0.80;0.80;;;;;;;;;;5105811;28;20535;-62
2022/04/24 09:34:30;;;;;;;2.35;1.00;;;;;;;;;;5105611;28;20376;-62
2022/04/24 09:37:01;;;;;;;0.63;0.63;;;;;;;;;;5105300;28;20211;-62
2022/04/24 09:39:28;;;;;;;0.98;0.98;;;;;;;;;;5105589;28;20195;-61
2022/04/24 09:42:01;;;;;;;1.65;0.77;;;;;;;;;;5105395;28;20204;-62
2022/04/24 09:44:35;;;;;;;1.00;1.00;;;;;;;;;;5105400;28;20254;-61
2022/04/24 09:47:01;;;;;;;0.90;0.90;;;;;;;;;;5105208;28;20206;-61
2022/04/24 09:49:28;;;;;;;2.22;1.23;;;;;;;;;;5105348;28;20199;-62
2022/04/24 09:51:55;;;;;;;1.92;1.83;;;;;;;;;;5105283;28;20199;-62
2022/04/24 09:54:23;;;;;;;1.55;1.00;;;;;;;;;;5105338;28;20227;-61
2022/04/24 09:56:50;;;;;;;1.42;1.10;;;;;;;;;;5105196;28;20266;-62
2022/04/24 09:59:16;;;;;;;0.93;0.93;;;;;;;;;;5105259;28;20253;-61
2022/04/24 10:01:43;;;;;;;1.58;1.48;;;;;;;;;;5105188;28;20537;-62
2022/04/24 10:04:10;;;;;;;2.20;1.40;;;;;;;;;;5104964;28;20241;-62
2022/04/24 10:06:36;;;;;;;1.70;1.60;;;;;;;;;;5104673;28;20216;-61
2022/04/24 10:09:04;;;;;;;2.00;1.77;;;;;;;;;;5105250;28;20538;-62
2022/04/24 10:11:32;;;;;;;0.80;0.80;;;;;;;;;;5105077;28;20226;-63
2022/04/24 10:14:02;;;;;;;1.13;0.98;;;;;;;;;;5103610;28;20237;-62
2022/04/24 10:16:47;;;;;;;0.82;0.82;;;;;;;;;;5104633;28;20192;-63
2022/04/24 10:19:18;;;;;;;1.08;1.00;;;;;;;;;;5104687;28;20235;-62
2022/04/24 10:21:58;;;;;;;0.63;0.63;;;;;;;;;;5104892;28;20203;-63
2022/04/24 10:24:24;;;;;;;0.80;0.80;;;;;;;;;;5104763;28;20241;-62
2022/04/24 10:26:57;;;;;;;2.05;1.95;;;;;;;;;;5104528;28;20195;-62
2022/04/24 10:29:23;;;;;;;0.70;0.70;;;;;;;;;;5104525;28;20202;-62
2022/04/24 10:31:49;;;;;;;1.17;0.80;;;;;;;;;;5104292;28;20191;-62
2022/04/24 10:34:18;;;;;;;1.42;0.80;;;;;;;;;;5105024;28;20196;-62
2022/04/24 10:36:54;;;;;;;2.42;1.30;;;;;;;;;;5104483;28;20386;-62
2022/04/24 10:39:22;;;;;;;1.45;1.35;;;;;;;;;;5104654;28;20422;-62
2022/04/24 10:41:55;;;;;;;1.38;1.10;;;;;;;;;;5104320;28;20203;-62
2022/04/24 10:44:22;;;;;;;1.13;0.95;;;;;;;;;;5104207;28;20425;-62
2022/04/24 10:46:49;;;;;;;0.90;0.90;;;;;;;;;;5104106;28;20196;-62
2022/04/24 10:49:16;;;;;;;1.50;1.40;;;;;;;;;;5104638;28;20249;-62
2022/04/24 10:51:43;;;;;;;0.80;0.80;;;;;;;;;;5104568;28;20200;-62
2022/04/24 10:54:11;;;;;;;0.70;0.70;;;;;;;;;;5104223;28;20515;-61
2022/04/24 10:56:38;;;;;;;1.30;1.00;;;;;;;;;;5103875;28;20196;-61
2022/04/24 10:59:10;;;;;;;1.63;1.63;;;;;;;;;;5104267;28;20210;-62
2022/04/24 11:01:37;;;;;;;1.00;1.00;;;;;;;;;;5103890;28;20570;-61
2022/04/24 11:04:07;;;;;;;0.80;0.80;;;;;;;;;;5104094;28;20199;-61
2022/04/24 11:06:33;;;;;;;2.53;1.40;;;;;;;;;;5103317;28;20255;-62
2022/04/24 11:09:06;;;;;;;0.82;0.82;;;;;;;;;;5103860;28;20206;-62
2022/04/24 11:11:33;;;;;;;1.48;1.20;;;;;;;;;;5103726;28;20238;-62
2022/04/24 11:14:00;;;;;;;0.80;0.80;;;;;;;;;;5103684;28;20200;-62
2022/04/24 11:16:27;;;;;;;0.90;0.90;;;;;;;;;;5103260;28;20199;-63
2022/04/24 11:18:54;;;;;;;0.90;0.90;;;;;;;;;;5103557;28;20242;-62
2022/04/24 11:21:21;;;;;;;0.90;0.90;;;;;;;;;;5103953;28;20411;-63
2022/04/24 11:23:48;;;;;;;1.10;1.00;;;;;;;;;;5103274;28;20196;-64
2022/04/24 11:26:14;;;;;;;1.15;1.08;;;;;;;;;;5103007;28;20216;-62
2022/04/24 11:28:41;;;;;;;1.52;0.90;;;;;;;;;;5103648;28;20196;-61
2022/04/24 11:31:09;;;;;;;0.98;0.90;;;;;;;;;;5103418;28;20257;-61
2022/04/24 11:33:37;;;;;;;0.93;0.90;;;;;;;;;;5103337;28;20188;-62
2022/04/24 11:36:05;;;;;;;1.17;1.17;;;;;;;;;;5103139;28;20202;-62
2022/04/24 11:38:31;;;;;;;0.88;0.88;;;;;;;;;;5103026;28;20241;-62
2022/04/24 11:41:01;;;;;;;1.58;1.30;;;;;;;;;;5103293;28;20241;-62
2022/04/24 11:43:28;;;;;;;2.78;1.40;;;;;;;;;;5103100;28;20196;-62
2022/04/24 11:51:23;;;;;;;0.88;0.88;;;;;;;;;;5102187;28;20226;-62
2022/04/24 11:53:49;;;;;;;1.00;1.00;;;;;;;;;;5093123;28;20504;-62
2022/04/24 11:56:16;;;;;;;1.35;1.33;;;;;;;;;;5091697;28;20188;-61
2022/04/24 11:58:44;;;;;;;1.17;1.17;;;;;;;;;;5091842;28;20199;-63
2022/04/24 12:01:13;;;;;;;0.85;0.85;;;;;;;;;;5093052;28;20215;-63
2022/04/24 12:03:43;;;;;;;1.70;1.60;;;;;;;;;;5091133;28;20200;-63
2022/04/24 12:06:10;;;;;;;1.33;1.13;;;;;;;;;;5091846;28;20231;-62
2022/04/24 12:08:40;;;;;;;1.33;1.23;;;;;;;;;;5093177;28;20192;-63
2022/04/24 12:11:06;;;;;;;1.88;1.13;;;;;;;;;;5092031;28;20242;-63
2022/04/24 12:13:33;;;;;;;1.15;1.05;;;;;;;;;;5096423;28;20487;-62
2022/04/24 12:16:00;;;;;;;0.95;0.95;;;;;;;;;;5101922;28;20215;-62
2022/04/24 12:18:27;;;;;;;0.90;0.90;;;;;;;;;;5102441;28;20196;-62
2022/04/24 12:20:55;;;;;;;0.70;0.70;;;;;;;;;;5102391;28;20243;-62
2022/04/24 12:23:22;;;;;;;2.00;0.90;;;;;;;;;;5102561;28;20203;-62
2022/04/24 12:25:50;;;;;;;0.80;0.80;;;;;;;;;;5102372;28;20355;-62
2022/04/24 12:28:27;;;;;;;1.08;1.00;;;;;;;;;;5102232;28;20558;-62
2022/04/24 12:30:53;;;;;;;1.38;0.80;;;;;;;;;;5102571;28;20207;-62
2022/04/24 12:33:19;;;;;;;0.95;0.95;;;;;;;;;;5102534;28;20199;-62
2022/04/24 12:35:45;;;;;;;0.57;0.57;;;;;;;;;;5102445;28;20237;-62
2022/04/24 12:38:16;;;;;;;0.60;0.60;;;;;;;;;;5101471;28;20257;-62
2022/04/24 12:40:53;;;;;;;0.80;0.80;;;;;;;;;;5102234;28;20257;-61
2022/04/24 12:43:24;;;;;;;0.63;0.60;;;;;;;;;;5102747;28;20249;-62
2022/04/24 12:45:50;;;;;;;1.58;0.50;;;;;;;;;;5102377;28;20247;-60
2022/04/24 12:48:16;;;;;;;0.98;0.60;;;;;;;;;;5102096;28;20363;-62
2022/04/24 12:50:43;;;;;;;2.53;0.50;;;;;;;;;;5102155;28;20203;-61
2022/04/24 12:53:09;;;;;;;0.50;0.50;;;;;;;;;;5102183;28;20196;-62
2022/04/24 12:55:37;;;;;;;0.40;0.40;;;;;;;;;;5102136;28;20214;-62
2022/04/24 12:58:03;;;;;;;0.60;0.60;;;;;;;;;;5101867;28;20211;-62
2022/04/24 13:00:29;;;;;;;0.50;0.50;;;;;;;;;;5102278;28;20215;-62
2022/04/24 13:02:57;;;;;;;0.50;0.50;;;;;;;;;;5102300;28;20729;-62
2022/04/24 13:05:23;;;;;;;0.90;0.70;;;;;;;;;;5101852;28;20219;-63
2022/04/24 13:07:51;;;;;;;0.43;0.43;;;;;;;;;;5101776;28;20240;-62
2022/04/24 13:10:18;;;;;;;0.55;0.55;;;;;;;;;;5101981;28;20204;-62
2022/04/24 13:12:45;;;;;;;0.80;0.80;;;;;;;;;;5102255;28;20214;-63
2022/04/24 13:15:12;;;;;;;0.80;0.80;;;;;;;;;;5102211;28;20234;-62
2022/04/24 13:20:22;;;;;;;1.10;0.70;;;;;;;;;;5101966;28;20194;-62
2022/04/24 13:22:48;;;;;;;0.75;0.60;;;;;;;;;;5101829;28;20196;-62
2022/04/24 13:25:14;;;;;;;0.70;0.70;;;;;;;;;;5101962;28;20373;-61
2022/04/24 13:27:41;;;;;;;1.30;1.20;;;;;;;;;;5101811;28;20549;-62
2022/04/24 13:30:09;;;;;;;0.57;0.57;;;;;;;;;;5101781;28;20200;-62
2022/04/24 13:32:36;;;;;;;1.02;0.80;;;;;;;;;;5101855;28;20196;-62
2022/04/24 13:35:02;;;;;;;0.50;0.50;;;;;;;;;;5101590;28;20196;-62
2022/04/24 13:40:12;;;;;;;0.85;0.60;;;;;;;;;;5080341;28;20297;-61
2022/04/24 13:42:38;;;;;;;0.60;0.60;;;;;;;;;;5101725;28;20421;-62
2022/04/24 13:45:05;;;;;;;0.73;0.70;;;;;;;;;;5101630;28;20503;-62
2022/04/24 13:47:32;;;;;;;0.73;0.47;;;;;;;;;;5101247;28;20220;-62
2022/04/24 13:49:59;;;;;;;1.63;0.60;;;;;;;;;;5105247;28;20223;-62
2022/04/24 13:52:25;;;;;;;0.90;0.90;;;;;;;;;;5105207;28;20253;-61
2022/04/24 13:54:53;;;;;;;0.50;0.50;;;;;;;;;;5105275;28;20202;-62
2022/04/24 13:57:20;;;;;;;0.70;0.70;;;;;;;;;;5104897;28;20305;-62
2022/04/24 13:59:46;;;;;;;0.40;0.40;;;;;;;;;;5105060;28;20233;-62
2022/04/24 14:02:12;;;;;;;0.60;0.60;;;;;;;;;;5104956;28;20209;-62
2022/04/24 14:04:40;;;;;;;1.25;1.15;;;;;;;;;;5105101;28;20221;-62
2022/04/24 14:07:07;;;;;;;0.77;0.70;;;;;;;;;;5104846;28;20239;-62
2022/04/24 14:09:34;;;;;;;1.10;0.60;;;;;;;;;;5104945;28;20233;-62
2022/04/24 14:12:01;;;;;;;1.65;0.52;;;;;;;;;;5104870;28;20235;-62
2022/04/24 14:14:27;;;;;;;0.40;0.40;;;;;;;;;;5105338;28;20200;-62
2022/04/24 14:16:53;;;;;;;0.77;0.40;;;;;;;;;;5104402;28;20196;-62
2022/04/24 14:19:20;;;;;;;0.45;0.40;;;;;;;;;;5104914;28;20209;-62
2022/04/24 14:21:49;;;;;;;0.93;0.90;;;;;;;;;;5104756;28;20203;-62
2022/04/24 14:24:15;;;;;;;0.50;0.50;;;;;;;;;;5104705;28;20223;-62
2022/04/24 14:26:41;;;;;;;0.55;0.55;;;;;;;;;;5104390;28;20215;-62
2022/04/24 14:29:08;;;;;;;0.52;0.50;;;;;;;;;;5104472;28;20196;-62
2022/04/24 14:31:34;;;;;;;1.58;0.43;;;;;;;;;;5104385;28;20195;-62
2022/04/24 14:34:00;;;;;;;0.50;0.50;;;;;;;;;;5104643;28;20200;-62
2022/04/24 14:36:27;;;;;;;0.47;0.47;;;;;;;;;;5104409;28;20192;-62
2022/04/24 14:38:54;;;;;;;0.55;0.55;;;;;;;;;;5104412;28;20199;-62
2022/04/24 14:41:21;;;;;;;0.50;0.50;;;;;;;;;;5104637;28;20234;-62
2022/04/24 14:43:47;;;;;;;1.48;0.60;;;;;;;;;;5104146;28;20241;-62